Time;durP1;ratioP1;P1;durP2;ratioP2;P2;SDS_P1;SDS_P2;PMS_P1;PMS_P2;Temp;Humidity;BMP_temperature;BMP_pressure;BME280_temperature;BME280_humidity;BME280_pressure;Samples;Min_cycle;Max_cycle;Signal;HPM_P1;HPM_P2
2024/04/11 00:00:39;;;;;;;15.20;10.70;;;;;;;10.69;100.00;100378.89;109451;1253;59837;-74
2024/04/11 00:03:25;;;;;;;14.80;11.60;;;;;;;10.68;100.00;100384.42;109373;1253;60732;-74
2024/04/11 00:05:52;;;;;;;12.90;11.40;;;;;;;10.69;100.00;100384.23;109495;1254;66865;-74
2024/04/11 00:08:19;;;;;;;16.00;12.00;;;;;;;10.69;100.00;100385.45;109477;1254;60089;-74
2024/04/11 00:10:46;;;;;;;14.00;11.30;;;;;;;10.69;100.00;100384.55;109525;1253;62599;-74
2024/04/11 00:13:12;;;;;;;13.70;11.60;;;;;;;10.69;100.00;100382.09;109454;1253;60722;-74
2024/04/11 00:15:38;;;;;;;16.80;12.70;;;;;;;10.69;100.00;100382.09;109460;1254;59781;-73
2024/04/11 00:18:07;;;;;;;17.30;12.80;;;;;;;10.69;100.00;100383.51;109507;1254;59851;-74
2024/04/11 00:20:33;;;;;;;15.80;13.70;;;;;;;10.68;100.00;100380.89;109502;1254;60805;-73
2024/04/11 00:22:59;;;;;;;16.10;12.90;;;;;;;10.66;100.00;100381.88;109424;1254;59902;-73
2024/04/11 00:25:26;;;;;;;14.90;12.60;;;;;;;10.65;100.00;100383.53;109443;1254;60106;-73
2024/04/11 00:27:53;;;;;;;16.10;12.60;;;;;;;10.64;100.00;100382.52;109323;1254;59977;-73
2024/04/11 00:30:20;;;;;;;17.00;12.30;;;;;;;10.63;100.00;100380.77;109484;1253;66952;-73
2024/04/11 00:32:48;;;;;;;18.00;13.20;;;;;;;10.63;100.00;100383.25;109511;1253;59673;-73
2024/04/11 00:35:18;;;;;;;17.50;12.50;;;;;;;10.63;100.00;100382.20;109455;1254;64067;-73
2024/04/11 00:37:48;;;;;;;18.10;12.80;;;;;;;10.61;100.00;100377.63;109436;1254;59860;-73
2024/04/11 00:40:15;;;;;;;13.60;11.60;;;;;;;10.60;100.00;100377.52;109513;1254;59813;-73
2024/04/11 00:42:41;;;;;;;17.30;12.80;;;;;;;10.60;100.00;100379.15;109505;1254;67276;-73
2024/04/11 00:45:08;;;;;;;17.70;12.30;;;;;;;10.59;100.00;100377.59;109498;1254;59988;-73
2024/04/11 00:47:34;;;;;;;15.70;13.00;;;;;;;10.59;100.00;100380.42;109473;1253;59973;-73
2024/04/11 00:50:01;;;;;;;17.60;13.70;;;;;;;10.59;100.00;100379.00;109476;1256;59745;-74
2024/04/11 00:52:29;;;;;;;16.20;12.70;;;;;;;10.59;100.00;100386.08;109447;1253;59850;-73
2024/04/11 00:54:56;;;;;;;16.80;12.90;;;;;;;10.59;100.00;100388.77;109491;1254;65383;-73
2024/04/11 00:57:24;;;;;;;14.30;12.80;;;;;;;10.57;100.00;100386.52;109481;1254;60187;-73
2024/04/11 00:59:51;;;;;;;17.70;13.30;;;;;;;10.54;100.00;100386.09;109467;1253;62806;-73
2024/04/11 01:02:17;;;;;;;19.80;14.00;;;;;;;10.53;100.00;100385.29;109178;1252;59805;-73
2024/04/11 01:04:44;;;;;;;16.20;13.10;;;;;;;10.51;100.00;100382.52;109461;1254;59782;-74
2024/04/11 01:07:12;;;;;;;15.00;12.90;;;;;;;10.49;100.00;100379.79;109476;1254;66716;-74
2024/04/11 01:09:43;;;;;;;14.10;12.30;;;;;;;10.46;100.00;100375.30;109470;1256;61456;-73
2024/04/11 01:12:16;;;;;;;17.20;13.80;;;;;;;10.43;100.00;100374.02;109476;1252;62613;-73
2024/04/11 01:14:44;;;;;;;18.50;13.50;;;;;;;10.40;100.00;100372.34;109448;1254;59744;-73
2024/04/11 01:17:13;;;;;;;16.80;13.50;;;;;;;10.40;100.00;100370.08;109458;1256;59797;-73
2024/04/11 01:19:42;;;;;;;16.60;13.10;;;;;;;10.37;100.00;100371.24;109459;1253;66920;-73
2024/04/11 01:22:10;;;;;;;18.20;14.30;;;;;;;10.34;100.00;100370.31;109458;1254;60135;-73
2024/04/11 01:24:40;;;;;;;16.30;12.80;;;;;;;10.32;100.00;100368.80;109444;1254;62852;-74
2024/04/11 01:27:14;;;;;;;17.50;14.30;;;;;;;10.31;100.00;100370.45;109441;1253;59779;-73
2024/04/11 01:29:41;;;;;;;18.80;14.40;;;;;;;10.28;100.00;100369.67;109445;1253;60027;-74
2024/04/11 01:32:08;;;;;;;16.60;12.90;;;;;;;10.26;100.00;100373.66;109474;1253;67182;-74
2024/04/11 01:34:34;;;;;;;14.30;12.70;;;;;;;10.23;100.00;100380.38;109452;1253;59806;-74
2024/04/11 01:37:01;;;;;;;16.20;13.50;;;;;;;10.20;100.00;100380.48;109412;1256;62805;-73
2024/04/11 01:39:27;;;;;;;16.50;12.90;;;;;;;10.16;100.00;100382.06;109455;1253;59816;-74
2024/04/11 01:41:53;;;;;;;15.00;13.40;;;;;;;10.12;100.00;100385.96;109494;1254;59862;-74
2024/04/11 01:44:21;;;;;;;17.80;13.10;;;;;;;10.10;100.00;100385.55;109485;1252;60215;-74
2024/04/11 01:46:48;;;;;;;17.90;12.70;;;;;;;10.07;100.00;100384.92;109496;1253;69941;-75
2024/04/11 01:49:15;;;;;;;25.40;14.50;;;;;;;10.05;100.00;100381.83;109436;1253;64032;-73
2024/04/11 01:51:41;;;;;;;14.40;12.90;;;;;;;10.04;100.00;100378.69;109303;1253;59793;-73
2024/04/11 01:54:07;;;;;;;16.90;13.30;;;;;;;10.01;100.00;100380.21;109443;1254;59973;-73
2024/04/11 01:56:34;;;;;;;15.70;12.40;;;;;;;9.97;100.00;100383.59;109496;1254;59841;-73
2024/04/11 01:59:05;;;;;;;16.00;14.00;;;;;;;9.95;100.00;100382.45;109294;1252;59941;-73
2024/04/11 02:01:34;;;;;;;18.40;13.80;;;;;;;9.93;100.00;100379.31;109449;1253;63863;-74
2024/04/11 02:04:05;;;;;;;17.00;12.90;;;;;;;9.92;100.00;100376.70;109458;1254;60022;-73
2024/04/11 02:06:34;;;;;;;19.10;12.90;;;;;;;9.92;100.00;100379.90;109467;1253;60015;-74
2024/04/11 02:09:05;;;;;;;17.50;13.40;;;;;;;9.92;100.00;100379.20;109444;1254;66635;-73
2024/04/11 02:11:33;;;;;;;18.80;14.00;;;;;;;9.91;100.00;100380.31;109479;1252;60119;-73
2024/04/11 02:14:01;;;;;;;17.20;13.30;;;;;;;9.91;100.00;100381.02;109427;1254;64045;-73
2024/04/11 02:16:34;;;;;;;16.00;13.40;;;;;;;9.91;100.00;100379.97;109461;1253;60136;-73
2024/04/11 02:19:06;;;;;;;17.20;13.90;;;;;;;9.91;100.00;100378.19;109484;1253;59769;-73
2024/04/11 02:21:34;;;;;;;17.00;14.10;;;;;;;9.92;100.00;100378.15;109466;1253;65848;-73
2024/04/11 02:24:01;;;;;;;16.60;13.60;;;;;;;9.92;100.00;100380.61;109460;1254;60158;-73
2024/04/11 02:26:28;;;;;;;17.30;14.30;;;;;;;9.92;100.00;100378.48;109427;1253;65249;-74
2024/04/11 02:28:55;;;;;;;22.10;15.90;;;;;;;9.92;100.00;100376.73;109434;1252;59840;-74
2024/04/11 02:31:22;;;;;;;16.80;15.00;;;;;;;9.91;100.00;100374.46;109487;1253;60256;-73
2024/04/11 02:33:48;;;;;;;19.20;16.00;;;;;;;9.88;100.00;100373.16;109499;1252;59850;-73
2024/04/11 02:36:14;;;;;;;18.70;15.30;;;;;;;9.87;100.00;100371.77;109490;1254;60016;-74
2024/04/11 02:38:41;;;;;;;15.60;13.90;;;;;;;9.86;100.00;100376.23;109483;1252;59802;-73
2024/04/11 02:41:07;;;;;;;18.30;14.50;;;;;;;9.85;100.00;100375.93;109258;1257;59824;-73
2024/04/11 02:43:34;;;;;;;20.90;15.90;;;;;;;9.84;100.00;100374.73;109494;1252;59735;-73
2024/04/11 02:46:00;;;;;;;19.70;14.80;;;;;;;9.83;100.00;100373.17;109479;1253;59917;-73
2024/04/11 02:48:27;;;;;;;18.80;15.10;;;;;;;9.82;100.00;100370.55;109471;1253;59853;-73
2024/04/11 02:50:54;;;;;;;19.10;17.00;;;;;;;9.79;100.00;100368.20;109410;1252;59941;-73
2024/04/11 02:53:22;;;;;;;22.50;17.60;;;;;;;9.78;100.00;100369.12;109178;1253;59840;-73
2024/04/11 02:55:49;;;;;;;20.50;17.30;;;;;;;9.81;100.00;100367.73;109460;1254;59780;-73
2024/04/11 02:58:15;;;;;;;22.80;18.10;;;;;;;9.82;100.00;100360.08;109463;1253;59842;-74
2024/04/11 03:00:42;;;;;;;23.40;17.70;;;;;;;9.81;100.00;100361.69;109504;1253;59915;-74
2024/04/11 03:03:08;;;;;;;21.90;19.00;;;;;;;9.81;100.00;100358.37;109453;1252;65759;-74
2024/04/11 03:05:36;;;;;;;21.50;18.10;;;;;;;9.80;100.00;100355.02;109421;1253;59833;-74
2024/04/11 03:08:06;;;;;;;22.20;18.20;;;;;;;9.76;100.00;100355.17;109489;1253;59739;-74
2024/04/11 03:10:32;;;;;;;;;;;;;;;9.74;100.00;100354.73;109480;1252;66850;-73
2024/04/11 03:12:59;;;;;;;21.80;19.10;;;;;;;9.73;100.00;100360.48;109475;1253;60155;-73
2024/04/11 03:15:30;;;;;;;23.60;19.10;;;;;;;9.73;100.00;100360.80;109446;1254;62535;-73
2024/04/11 03:17:56;;;;;;;21.80;19.00;;;;;;;9.73;100.00;100365.79;109480;1252;59784;-73
2024/04/11 03:20:23;;;;;;;22.60;19.40;;;;;;;9.73;100.00;100364.74;109452;1253;59836;-73
2024/04/11 03:22:49;;;;;;;25.00;19.00;;;;;;;9.76;100.00;100369.77;109462;1253;60019;-74
2024/04/11 03:25:15;;;;;;;23.70;19.00;;;;;;;9.78;100.00;100363.46;109474;1252;59774;-74
2024/04/11 03:27:42;;;;;;;26.00;18.80;;;;;;;9.78;100.00;100367.34;109424;1252;59818;-74
2024/04/11 03:30:08;;;;;;;22.80;19.50;;;;;;;9.76;100.00;100369.56;109448;1254;59777;-74
2024/04/11 03:32:34;;;;;;;27.40;21.40;;;;;;;9.74;100.00;100369.48;109461;1252;60006;-74
2024/04/11 03:35:01;;;;;;;25.40;22.50;;;;;;;9.73;100.00;100373.40;109402;1254;59800;-74
2024/04/11 03:37:27;;;;;;;25.80;20.80;;;;;;;9.74;100.00;100373.73;109490;1253;59889;-74
2024/04/11 03:39:54;;;;;;;23.30;19.80;;;;;;;9.74;100.00;100372.12;109480;1253;59939;-73
2024/04/11 03:42:20;;;;;;;24.30;19.90;;;;;;;9.74;100.00;100371.43;109473;1253;59824;-73
2024/04/11 03:44:49;;;;;;;25.40;20.30;;;;;;;9.70;100.00;100371.59;109472;1253;60019;-74
2024/04/11 03:47:16;;;;;;;21.30;19.10;;;;;;;9.66;100.00;100373.86;109466;1253;65644;-74
2024/04/11 03:49:43;;;;;;;28.60;20.00;;;;;;;9.62;100.00;100376.87;109310;1254;60125;-73
2024/04/11 03:52:10;;;;;;;30.80;22.10;;;;;;;9.57;100.00;100380.99;109167;1253;64596;-72
2024/04/11 03:54:37;;;;;;;27.40;20.70;;;;;;;9.54;100.00;100381.48;109454;1253;59725;-74
2024/04/11 03:57:04;;;;;;;27.10;22.50;;;;;;;9.52;100.00;100379.41;109501;1252;59851;-74
2024/04/11 03:59:31;;;;;;;22.10;19.60;;;;;;;9.52;100.00;100379.94;109472;1253;66523;-74
2024/04/11 04:01:57;;;;;;;25.00;22.40;;;;;;;9.51;100.00;100377.69;109485;1253;59865;-74
2024/04/11 04:04:24;;;;;;;26.60;20.10;;;;;;;9.50;100.00;100377.55;109420;1252;59818;-74
2024/04/11 04:06:50;;;;;;;22.80;20.10;;;;;;;9.48;100.00;100381.69;109491;1252;59998;-74
2024/04/11 04:09:17;;;;;;;29.90;20.60;;;;;;;9.48;100.00;100381.53;109476;1253;59829;-74
2024/04/11 04:11:43;;;;;;;26.10;20.20;;;;;;;9.48;100.00;100381.53;109456;1252;59861;-74
2024/04/11 04:14:12;;;;;;;28.00;20.90;;;;;;;9.47;100.00;100385.66;109464;1252;60030;-74
2024/04/11 04:16:39;;;;;;;24.80;20.70;;;;;;;9.45;100.00;100391.05;109433;1254;63731;-74
2024/04/11 04:19:05;;;;;;;27.10;23.10;;;;;;;9.46;100.00;100395.98;109444;1253;59830;-74
2024/04/11 04:21:33;;;;;;;27.10;23.00;;;;;;;9.49;100.00;100394.45;109421;1252;59828;-74
2024/04/11 04:24:02;;;;;;;30.10;21.80;;;;;;;9.52;100.00;100391.30;109460;1252;66883;-74
2024/04/11 04:26:32;;;;;;;26.40;20.80;;;;;;;9.56;100.00;100393.98;109447;1253;59961;-74
2024/04/11 04:28:59;;;;;;;21.70;19.10;;;;;;;9.60;100.00;100395.74;109496;1252;62783;-74
2024/04/11 04:31:28;;;;;;;22.00;19.40;;;;;;;9.65;100.00;100394.70;109441;1252;59764;-74
2024/04/11 04:33:57;;;;;;;27.80;22.70;;;;;;;9.68;100.00;100398.82;109439;1253;59919;-74
2024/04/11 04:36:39;;;;;;;31.90;26.10;;;;;;;9.74;100.00;100400.70;109456;1253;65729;-74
2024/04/11 04:39:07;;;;;;;33.00;23.80;;;;;;;9.80;100.00;100406.83;109483;1253;60002;-74
2024/04/11 04:41:34;;;;;;;31.70;23.40;;;;;;;9.85;100.00;100405.21;109455;1253;62826;-74
2024/04/11 04:44:02;;;;;;;28.60;23.90;;;;;;;9.93;100.00;100408.63;109437;1253;60005;-74
2024/04/11 04:46:30;;;;;;;39.30;27.10;;;;;;;9.99;100.00;100409.60;109485;1252;59935;-74
2024/04/11 04:48:58;;;;;;;33.90;28.20;;;;;;;10.06;100.00;100408.61;109473;1253;66513;-74
2024/04/11 04:51:26;;;;;;;30.60;26.60;;;;;;;10.12;100.00;100408.87;109512;1253;60115;-74
2024/04/11 04:53:53;;;;;;;26.20;23.50;;;;;;;10.17;100.00;100410.45;109418;1254;62773;-75
2024/04/11 04:56:23;;;;;;;29.70;24.30;;;;;;;10.20;100.00;100414.57;109462;1253;59771;-74
2024/04/11 04:58:51;;;;;;;;;;;;;;;10.25;100.00;100416.31;109480;1253;59756;-74
2024/04/11 05:01:20;;;;;;;27.20;24.00;;;;;;;10.30;100.00;100417.40;109526;1253;65635;-74
2024/04/11 05:03:46;;;;;;;25.20;22.50;;;;;;;10.35;100.00;100419.86;109434;1253;59965;-73
2024/04/11 05:06:13;;;;;;;26.80;22.80;;;;;;;10.40;100.00;100418.76;109481;1253;59935;-73
2024/04/11 05:08:46;;;;;;;28.70;22.60;;;;;;;10.44;100.00;100420.86;109487;1253;59933;-73
2024/04/11 05:11:13;;;;;;;27.70;22.30;;;;;;;10.51;100.00;100423.73;109495;1253;59784;-73
2024/04/11 05:13:42;;;;;;;26.70;21.90;;;;;;;10.60;100.00;100421.22;109462;1253;65707;-74
2024/04/11 05:16:09;;;;;;;24.50;21.20;;;;;;;10.69;100.00;100421.73;109499;1252;60131;-73
2024/04/11 05:18:37;;;;;;;27.10;21.30;;;;;;;10.77;100.00;100421.38;109494;1253;63825;-73
2024/04/11 05:21:08;;;;;;;27.10;21.30;;;;;;;10.85;100.00;100423.87;109487;1252;59899;-73
2024/04/11 05:23:38;;;;;;;23.70;19.80;;;;;;;10.92;100.00;100425.10;109450;1252;60021;-74
2024/04/11 05:26:09;;;;;;;;;;;;;;;10.99;100.00;100426.59;109501;1253;66667;-73
2024/04/11 05:28:40;;;;;;;25.00;19.10;;;;;;;11.04;100.00;100424.27;109479;1252;59747;-73
2024/04/11 05:31:07;;;;;;;25.90;19.00;;;;;;;11.11;100.00;100425.36;109471;1253;64148;-73
2024/04/11 05:33:37;;;;;;;22.00;19.00;;;;;;;11.16;100.00;100425.63;109501;1252;59893;-73
2024/04/11 05:36:06;;;;;;;22.70;17.70;;;;;;;11.21;100.00;100426.65;109431;1252;60151;-73
2024/04/11 05:38:37;;;;;;;20.70;18.60;;;;;;;11.25;100.00;100425.59;109463;1252;66818;-74
2024/04/11 05:41:09;;;;;;;22.10;18.80;;;;;;;11.28;100.00;100424.71;109493;1252;59756;-74
2024/04/11 05:43:36;;;;;;;22.10;18.60;;;;;;;11.32;100.00;100424.52;109445;1252;63755;-74
2024/04/11 05:46:02;;;;;;;21.40;18.60;;;;;;;11.40;100.00;100428.74;109180;1254;60128;-74
2024/04/11 05:48:29;;;;;;;23.60;19.10;;;;;;;11.50;100.00;100431.88;109479;1253;59901;-74
2024/04/11 05:50:56;;;;;;;23.20;18.80;;;;;;;11.57;100.00;100432.61;109154;1253;59877;-74
2024/04/11 05:53:22;;;;;;;21.20;17.10;;;;;;;11.68;100.00;100432.98;109458;1253;60446;-74
2024/04/11 05:55:48;;;;;;;19.80;17.70;;;;;;;11.72;100.00;100438.27;109483;1252;59804;-74
2024/04/11 05:58:14;;;;;;;22.20;18.00;;;;;;;11.75;100.00;100442.96;109440;1252;59789;-74
2024/04/11 06:00:45;;;;;;;19.80;17.10;;;;;;;11.75;100.00;100442.21;109451;1252;59895;-74
2024/04/11 06:03:14;;;;;;;;;;;;;;;11.78;100.00;100450.08;109483;1253;66592;-74
2024/04/11 06:05:41;;;;;;;18.50;15.50;;;;;;;11.81;100.00;100456.36;109458;1253;68980;-74
2024/04/11 06:08:08;;;;;;;17.60;15.70;;;;;;;11.86;100.00;100457.05;109477;1252;64081;-74
2024/04/11 06:10:34;;;;;;;15.90;14.30;;;;;;;11.94;100.00;100458.44;109463;1252;59824;-74
2024/04/11 06:13:04;;;;;;;18.80;14.70;;;;;;;12.02;100.00;100459.83;109481;1252;59847;-73
2024/04/11 06:15:30;;;;;;;16.20;14.50;;;;;;;12.10;100.00;100456.42;109485;1252;65296;-74
2024/04/11 06:17:57;;;;;;;15.60;13.30;;;;;;;12.17;100.00;100458.37;109456;1253;59807;-73
2024/04/11 06:20:24;;;;;;;17.90;13.00;;;;;;;12.21;100.00;100459.42;109454;1252;59762;-74
2024/04/11 06:22:55;;;;;;;15.70;13.30;;;;;;;12.25;100.00;100463.47;109472;1253;59986;-74
2024/04/11 06:25:22;;;;;;;14.50;11.90;;;;;;;12.34;100.00;100462.84;109471;1252;59884;-73
2024/04/11 06:27:48;;;;;;;13.60;12.20;;;;;;;12.43;100.00;100462.39;109499;1254;59751;-73
2024/04/11 06:30:18;;;;;;;11.80;10.60;;;;;;;12.57;100.00;100460.09;109474;1253;59741;-73
2024/04/11 06:32:49;;;;;;;13.90;9.30;;;;;;;12.70;100.00;100465.09;109475;1253;65333;-73
2024/04/11 06:35:15;;;;;;;12.80;9.60;;;;;;;12.81;100.00;100465.24;109466;1252;59846;-73
2024/04/11 06:37:44;;;;;;;9.30;7.60;;;;;;;12.97;100.00;100463.90;109490;1253;59822;-73
2024/04/11 06:40:14;;;;;;;11.70;9.40;;;;;;;13.10;100.00;100465.64;109525;1252;66443;-73
2024/04/11 06:42:46;;;;;;;10.90;8.80;;;;;;;13.22;100.00;100469.81;109465;1253;60328;-73
2024/04/11 06:45:14;;;;;;;10.10;8.90;;;;;;;13.31;100.00;100475.83;109507;1251;64135;-74
2024/04/11 06:47:42;;;;;;;11.30;8.20;;;;;;;13.37;100.00;100471.70;109436;1252;59756;-74
2024/04/11 06:50:09;;;;;;;10.80;8.40;;;;;;;13.46;100.00;100471.42;109477;1252;59754;-74
2024/04/11 06:52:36;;;;;;;8.80;7.40;;;;;;;13.50;100.00;100470.29;109476;1252;65301;-74
2024/04/11 06:55:05;;;;;;;12.60;8.60;;;;;;;13.52;100.00;100475.16;109468;1252;59919;-73
2024/04/11 06:57:37;;;;;;;9.90;7.50;;;;;;;13.57;100.00;100477.75;109443;1252;65432;-73
2024/04/11 07:00:04;;;;;;;11.90;8.00;;;;;;;13.61;100.00;100481.27;109478;1252;59881;-74
2024/04/11 07:02:30;;;;;;;12.80;8.70;;;;;;;13.66;100.00;100480.68;109336;1254;59798;-74
2024/04/11 07:05:02;;;;;;;7.50;6.70;;;;;;;13.70;100.00;100481.19;109483;1253;59894;-74
2024/04/11 07:07:28;;;;;;;8.70;7.10;;;;;;;13.74;100.00;100480.58;109497;1252;61457;-74
2024/04/11 07:09:55;;;;;;;10.40;7.40;;;;;;;13.78;100.00;100484.45;109521;1252;59959;-74
2024/04/11 07:12:36;;;;;;;9.30;6.60;;;;;;;13.83;100.00;100490.96;109489;1254;59865;-73
2024/04/11 07:15:06;;;;;;;10.80;6.50;;;;;;;13.90;100.00;100490.92;109456;1252;59938;-74
2024/04/11 07:17:32;;;;;;;7.60;6.40;;;;;;;14.01;100.00;100486.34;109468;1253;65302;-74
2024/04/11 07:20:00;;;;;;;9.20;7.00;;;;;;;14.09;100.00;100488.39;109470;1252;60596;-74
2024/04/11 07:22:28;;;;;;;10.40;7.30;;;;;;;14.14;100.00;100491.31;109474;1252;59878;-73
2024/04/11 07:24:54;;;;;;;8.10;6.60;;;;;;;14.21;100.00;100493.41;109464;1252;60001;-73
2024/04/11 07:27:21;;;;;;;9.70;7.40;;;;;;;14.33;100.00;100491.11;109464;1252;59773;-73
2024/04/11 07:29:47;;;;;;;9.00;6.90;;;;;;;14.45;100.00;100490.05;109466;1252;66469;-74
2024/04/11 07:32:14;;;;;;;8.50;7.30;;;;;;;14.55;100.00;100484.13;109471;1253;59793;-74
2024/04/11 07:34:40;;;;;;;10.60;8.00;;;;;;;14.66;100.00;100482.95;109170;1253;59900;-74
2024/04/11 07:37:06;;;;;;;10.60;8.30;;;;;;;14.72;98.74;100479.37;109461;1253;59857;-73
2024/04/11 07:39:33;;;;;;;13.20;8.60;;;;;;;14.76;98.00;100478.06;109454;1253;59818;-74
2024/04/11 07:42:00;;;;;;;9.30;8.30;;;;;;;14.81;96.41;100483.98;109062;1253;65530;-73
2024/04/11 07:44:26;;;;;;;11.30;8.80;;;;;;;14.87;96.72;100488.29;109473;1252;60223;-74
2024/04/11 07:46:53;;;;;;;15.00;9.00;;;;;;;15.04;97.49;100485.48;109458;1252;59917;-73
2024/04/11 07:49:20;;;;;;;10.20;8.00;;;;;;;15.14;93.48;100491.84;109475;1252;59839;-73
2024/04/11 07:51:47;;;;;;;11.10;7.90;;;;;;;15.12;92.30;100492.28;109351;1253;59812;-73
2024/04/11 07:54:15;;;;;;;11.40;7.60;;;;;;;15.24;94.90;100494.59;109503;1253;66829;-73
2024/04/11 07:56:41;;;;;;;9.50;6.90;;;;;;;15.42;93.09;100498.83;109459;1253;60102;-73
2024/04/11 07:59:11;;;;;;;9.10;8.10;;;;;;;15.53;92.13;100504.04;109524;1253;59813;-73
2024/04/11 08:01:41;;;;;;;10.30;7.60;;;;;;;15.69;91.63;100502.89;109311;1252;60200;-73
2024/04/11 08:04:10;;;;;;;8.00;7.00;;;;;;;15.85;89.86;100502.81;109484;1253;59754;-74
2024/04/11 08:06:37;;;;;;;9.20;7.10;;;;;;;15.89;87.16;100505.23;109497;1253;65361;-74
2024/04/11 08:09:06;;;;;;;7.10;6.40;;;;;;;15.88;87.14;100501.67;109470;1253;59834;-74
2024/04/11 08:11:34;;;;;;;9.00;6.60;;;;;;;15.96;86.47;100498.09;109457;1252;64056;-74
2024/04/11 08:14:05;;;;;;;8.20;6.80;;;;;;;16.17;87.13;100493.52;109452;1253;60062;-74
2024/04/11 08:16:33;;;;;;;11.00;8.50;;;;;;;16.52;88.10;100489.36;109519;1252;59927;-74
2024/04/11 08:19:02;;;;;;;8.90;6.70;;;;;;;16.85;85.92;100490.58;109468;1253;65622;-73
2024/04/11 08:21:30;;;;;;;6.80;6.00;;;;;;;17.09;83.72;100489.83;109464;1253;59871;-73
2024/04/11 08:24:00;;;;;;;8.90;6.80;;;;;;;17.32;83.67;100492.83;109468;1253;62668;-73
2024/04/11 08:26:27;;;;;;;8.90;6.30;;;;;;;17.57;81.98;100495.39;109375;1253;159782;-73
2024/04/11 08:28:55;;;;;;;8.20;6.90;;;;;;;17.74;81.65;100494.30;109478;1253;59819;-73
2024/04/11 08:31:27;;;;;;;10.50;7.70;;;;;;;17.90;78.67;100495.56;109315;1252;66917;-75
2024/04/11 08:33:57;;;;;;;6.30;5.70;;;;;;;17.95;77.80;100491.15;109517;1252;60185;-73
2024/04/11 08:36:23;;;;;;;9.00;6.20;;;;;;;18.10;77.80;100485.23;109452;1253;64045;-73
2024/04/11 08:38:50;;;;;;;8.50;5.80;;;;;;;18.26;76.40;100486.19;109504;1252;60089;-73
2024/04/11 08:41:16;;;;;;;19.70;17.70;;;;;;;18.34;75.12;100488.07;109500;1253;59723;-74
2024/04/11 08:43:45;;;;;;;10.70;9.60;;;;;;;18.42;73.94;100489.48;109518;1253;60048;-73
2024/04/11 08:46:12;;;;;;;7.60;6.70;;;;;;;18.50;73.37;100489.59;109537;1252;60095;-74
2024/04/11 08:48:39;;;;;;;7.40;6.60;;;;;;;18.62;73.72;100490.13;109491;1252;64495;-73
2024/04/11 08:51:21;;;;;;;7.70;6.70;;;;;;;18.79;73.43;100487.20;109405;1253;60015;-74
2024/04/11 08:53:50;;;;;;;11.30;7.10;;;;;;;18.96;73.82;100486.46;109491;1253;59927;-73
2024/04/11 08:56:17;;;;;;;8.60;5.70;;;;;;;19.15;72.96;100488.90;109507;1252;66897;-74
2024/04/11 08:58:48;;;;;;;7.50;6.80;;;;;;;19.18;70.65;100490.86;109538;1252;60854;-74
2024/04/11 09:01:19;;;;;;;6.50;4.70;;;;;;;19.17;69.66;100487.52;109496;1252;64476;-74
2024/04/11 09:03:48;;;;;;;8.40;5.80;;;;;;;19.20;68.80;100490.65;109485;1252;59820;-74
2024/04/11 09:06:23;;;;;;;5.90;5.30;;;;;;;19.29;68.03;100493.02;109543;1252;59822;-74
2024/04/11 09:08:54;;;;;;;6.30;5.40;;;;;;;19.36;67.71;100492.51;109490;1252;66929;-73
2024/04/11 09:11:25;;;;;;;6.80;5.70;;;;;;;19.45;67.47;100494.98;109335;1254;59905;-73
2024/04/11 09:13:52;;;;;;;6.00;5.10;;;;;;;19.35;65.47;100494.52;109476;1253;64062;-74
2024/04/11 09:16:27;;;;;;;6.50;5.80;;;;;;;19.27;66.05;100490.67;109430;1252;59768;-74
2024/04/11 09:19:08;;;;;;;5.60;5.00;;;;;;;19.32;66.18;100492.59;109473;1253;59982;-73
2024/04/11 09:21:43;;;;;;;5.70;5.20;;;;;;;19.55;67.25;100488.95;109488;1253;65404;-73
2024/04/11 09:24:13;;;;;;;7.10;6.10;;;;;;;19.80;66.79;100484.84;109522;1253;60149;-73
2024/04/11 09:26:40;;;;;;;6.40;5.50;;;;;;;19.85;65.19;100485.27;109419;1253;64103;-73
2024/04/11 09:29:06;;;;;;;6.90;5.80;;;;;;;19.90;65.15;100483.08;109479;1252;59826;-73
2024/04/11 09:31:33;;;;;;;8.30;6.30;;;;;;;19.86;63.98;100482.33;109530;1252;59743;-73
2024/04/11 09:34:00;;;;;;;15.30;13.00;;;;;;;19.81;63.98;100482.55;109488;1253;65590;-73
2024/04/11 09:36:30;;;;;;;6.80;5.90;;;;;;;19.80;64.40;100482.85;109447;1253;59824;-73
2024/04/11 09:39:05;;;;;;;6.90;5.00;;;;;;;19.87;64.57;100482.61;109447;1253;63780;-73
2024/04/11 09:41:34;;;;;;;8.40;5.10;;;;;;;19.93;64.42;100482.77;109481;1253;60287;-74
2024/04/11 09:44:03;;;;;;;8.00;5.10;;;;;;;19.97;63.90;100483.96;109532;1253;59888;-74
2024/04/11 09:46:31;;;;;;;6.40;5.70;;;;;;;19.97;63.08;100485.34;109502;1253;66665;-73
2024/04/11 09:48:58;;;;;;;7.00;5.50;;;;;;;19.94;61.93;100483.32;109499;1253;59874;-73
2024/04/11 09:51:28;;;;;;;7.80;5.60;;;;;;;19.92;61.84;100483.77;109462;1253;63765;-73
2024/04/11 09:53:57;;;;;;;6.50;5.80;;;;;;;20.05;62.93;100485.05;109511;1253;60041;-74
2024/04/11 09:56:24;;;;;;;5.30;4.40;;;;;;;20.17;63.45;100481.39;109304;1254;60202;-73
2024/04/11 09:58:51;;;;;;;6.50;4.90;;;;;;;20.35;62.72;100486.21;109136;1252;59846;-73
2024/04/11 10:01:31;;;;;;;6.00;5.40;;;;;;;20.44;61.54;100488.34;109503;1252;59848;-74
2024/04/11 10:04:04;;;;;;;5.80;5.20;;;;;;;20.44;59.90;100487.80;109493;1253;65450;-74
2024/04/11 10:06:35;;;;;;;6.60;5.50;;;;;;;20.37;60.07;100483.12;109212;1253;59865;-73
2024/04/11 10:09:11;;;;;;;6.60;5.10;;;;;;;20.44;60.37;100483.08;109457;1253;61914;-74
2024/04/11 10:11:45;;;;;;;6.30;5.70;;;;;;;20.59;60.48;100480.23;109504;1253;66870;-74
2024/04/11 10:14:20;;;;;;;6.60;5.30;;;;;;;20.52;58.86;100480.85;109511;1252;59835;-73
2024/04/11 10:16:48;;;;;;;7.40;5.10;;;;;;;20.43;59.21;100478.83;109449;1253;62519;-74
2024/04/11 10:19:28;;;;;;;7.40;5.30;;;;;;;20.41;58.31;100477.04;109465;1253;59733;-74
2024/04/11 10:22:06;;;;;;;5.40;4.80;;;;;;;20.37;59.92;100478.63;109472;1252;60604;-74
2024/04/11 10:24:37;;;;;;;6.50;5.40;;;;;;;20.50;59.15;100475.89;109475;1253;66957;-74
2024/04/11 10:27:11;;;;;;;6.30;4.70;;;;;;;20.61;59.40;100476.77;109479;1254;68828;-74
2024/04/11 10:29:43;;;;;;;5.00;4.50;;;;;;;20.76;59.74;100476.42;109469;1253;62842;-74
2024/04/11 10:32:32;;;;;;;6.50;4.80;;;;;;;20.82;59.49;100477.19;109483;1252;59793;-75
2024/04/11 10:35:04;;;;;;;5.50;4.90;;;;;;;20.66;57.81;100478.17;109463;1253;59854;-75
2024/04/11 10:37:33;;;;;;;6.40;5.00;;;;;;;20.58;59.16;100479.41;109323;1253;67146;-75
2024/04/11 10:40:00;;;;;;;7.80;5.40;;;;;;;20.72;58.62;100474.07;109205;1253;59865;-77
2024/04/11 10:42:39;;;;;;;6.80;4.60;;;;;;;20.80;58.09;100471.78;109499;1252;65256;-77
2024/04/11 10:45:12;;;;;;;5.30;4.40;;;;;;;20.93;58.40;100473.34;109420;1253;59763;-80
2024/04/11 10:47:39;;;;;;;4.80;4.40;;;;;;;21.07;58.74;100468.52;109445;1253;60621;-79
2024/04/11 10:50:15;;;;;;;5.90;4.50;;;;;;;21.23;58.88;100467.43;109093;1253;66623;-75
2024/04/11 10:52:45;;;;;;;5.60;5.10;;;;;;;21.41;58.35;100467.48;109465;1253;60016;-73
2024/04/11 10:55:22;;;;;;;5.60;4.70;;;;;;;21.42;57.48;100459.31;109446;1253;64138;-76
2024/04/11 10:58:08;;;;;;;6.40;4.80;;;;;;;21.42;57.29;100461.45;109466;1252;60028;-77
2024/04/11 11:06:12;;;;;;;5.90;4.60;;;;;;;20.96;56.14;100459.55;109469;1253;60291;-73
2024/04/11 11:08:42;;;;;;;8.90;5.30;;;;;;;21.00;56.81;100457.89;109427;1253;63741;-78
2024/04/11 11:11:14;;;;;;;8.10;4.80;;;;;;;21.09;57.41;100457.63;109475;1254;59868;-76
2024/04/11 11:13:42;;;;;;;6.90;5.40;;;;;;;21.31;56.97;100460.46;109489;1253;59809;-75
2024/04/11 11:16:12;;;;;;;5.70;4.80;;;;;;;21.41;56.03;100458.45;109489;1253;65350;-75